Time;durP1;ratioP1;P1;durP2;ratioP2;P2;SDS_P1;SDS_P2;PMS_P1;PMS_P2;Temp;Humidity;BMP_temperature;BMP_pressure;BME280_temperature;BME280_humidity;BME280_pressure;Samples;Min_cycle;Max_cycle;Signal;HPM_P1;HPM_P2
2023/02/01 00:01:38;;;;;;;8.05;3.88;;;7.00;58.40;;;1.91;80.78;96362.47;4990816;28;20284;-50
2023/02/01 00:04:10;;;;;;;7.65;4.03;;;7.00;59.00;;;1.87;81.04;96361.25;4999064;28;20028;-52
2023/02/01 00:06:36;;;;;;;7.13;4.17;;;6.90;58.40;;;1.82;81.42;96364.44;4990894;28;20056;-56
2023/02/01 00:09:02;;;;;;;7.25;3.60;;;6.90;58.40;;;1.82;81.12;96359.19;4992766;28;20040;-52
2023/02/01 00:11:34;;;;;;;7.28;4.25;;;6.80;58.40;;;1.76;81.08;96357.34;4975808;28;20029;-50
2023/02/01 00:14:00;;;;;;;8.23;4.77;;;6.80;58.50;;;1.73;81.77;96356.91;5009632;28;20392;-52
2023/02/01 00:16:30;;;;;;;8.68;4.32;;;6.70;58.50;;;1.73;81.84;96352.47;4993271;28;20103;-48
2023/02/01 00:19:04;;;;;;;7.15;5.22;;;6.70;58.60;;;1.69;81.95;96353.81;4982492;28;20607;-51
2023/02/01 00:21:36;;;;;;;7.03;4.15;;;6.60;58.60;;;1.64;81.99;96356.22;4988801;28;20120;-52
2023/02/01 00:24:03;;;;;;;8.60;4.38;;;6.60;58.70;;;1.64;82.19;96350.16;4983762;28;20438;-55
2023/02/01 00:26:43;;;;;;;9.45;4.85;;;6.60;58.70;;;1.59;82.22;96351.53;4991341;28;20030;-51
2023/02/01 00:29:18;;;;;;;8.20;5.40;;;6.60;58.80;;;1.59;82.43;96354.16;4995160;28;20037;-51
2023/02/01 00:31:45;;;;;;;7.55;4.60;;;6.50;58.80;;;1.59;82.88;96350.72;4991754;28;20017;-52
2023/02/01 00:34:20;;;;;;;8.38;4.30;;;6.50;58.80;;;1.61;82.09;96349.53;4974483;28;20083;-52
2023/02/01 00:36:48;;;;;;;9.30;4.97;;;6.60;58.90;;;1.67;82.41;96344.53;4994664;28;20056;-50
2023/02/01 00:39:17;;;;;;;8.82;4.63;;;6.50;58.90;;;1.69;82.03;96345.94;4992330;28;20029;-56
2023/02/01 00:41:43;;;;;;;10.05;5.00;;;6.50;58.90;;;1.69;82.03;96343.31;4995950;28;20468;-52
2023/02/01 00:44:09;;;;;;;9.25;5.10;;;6.60;59.00;;;1.73;81.71;96341.94;4978504;28;20116;-55
2023/02/01 00:46:36;;;;;;;9.82;5.15;;;6.60;58.90;;;1.78;82.36;96339.53;5007516;28;20017;-53
2023/02/01 00:49:03;;;;;;;9.55;5.15;;;6.70;59.00;;;1.79;82.09;96340.38;4987721;28;20030;-52
2023/02/01 00:51:30;;;;;;;10.07;4.82;;;6.70;59.00;;;1.81;82.37;96333.91;4996227;28;20025;-52
2023/02/01 00:53:59;;;;;;;7.72;4.50;;;6.70;59.00;;;1.81;82.28;96325.22;4995658;28;20021;-53
2023/02/01 00:56:29;;;;;;;10.07;4.75;;;6.70;59.00;;;1.81;82.48;96327.84;4991705;28;20029;-53
2023/02/01 00:58:56;;;;;;;9.27;4.78;;;6.70;58.90;;;1.81;82.01;96330.47;4992537;28;20028;-55
2023/02/01 01:01:27;;;;;;;8.32;4.43;;;6.70;59.00;;;1.81;82.13;96325.22;4988268;28;20045;-57
2023/02/01 01:03:59;;;;;;;10.20;4.78;;;6.80;59.00;;;1.81;82.24;96320.78;4974375;28;20029;-52
2023/02/01 01:06:32;;;;;;;8.50;4.72;;;6.70;58.90;;;1.82;81.71;96318.97;4988523;28;20036;-55
2023/02/01 01:09:06;;;;;;;10.07;5.25;;;6.80;59.00;;;1.86;81.58;96320.22;5005418;28;20128;-54
2023/02/01 01:11:37;;;;;;;6.90;4.43;;;6.80;59.00;;;1.88;81.03;96320.84;4998241;28;20105;-49
2023/02/01 01:14:05;;;;;;;6.22;4.15;;;6.80;59.00;;;1.82;81.36;96322.41;4994742;28;20095;-49
2023/02/01 01:16:33;;;;;;;8.18;5.03;;;6.80;59.00;;;1.79;80.91;96317.56;4979805;28;20064;-53
2023/02/01 01:19:03;;;;;;;7.80;4.93;;;6.70;58.90;;;1.77;81.41;96310.84;4979173;28;20507;-54
2023/02/01 01:21:30;;;;;;;11.63;5.47;;;6.70;58.90;;;1.72;81.63;96307.97;4992248;28;20033;-56
2023/02/01 01:23:56;;;;;;;7.07;4.75;;;6.70;58.90;;;1.67;82.12;96303.31;4979018;28;20482;-56
2023/02/01 01:26:29;;;;;;;9.98;5.07;;;6.70;58.90;;;1.58;81.88;96307.06;4971328;28;20437;-55
2023/02/01 01:29:01;;;;;;;8.52;4.93;;;6.60;58.80;;;1.56;81.84;96309.06;4972448;28;20037;-54
2023/02/01 01:31:28;;;;;;;9.23;5.03;;;6.60;58.80;;;1.51;82.27;96311.47;4981136;28;20018;-54
2023/02/01 01:33:59;;;;;;;11.05;5.03;;;6.50;58.80;;;1.42;82.50;96302.91;4974819;28;20040;-54
2023/02/01 01:36:28;;;;;;;10.50;4.95;;;6.50;58.90;;;1.36;83.03;96306.28;4988839;28;20041;-54
2023/02/01 01:38:54;;;;;;;9.45;5.30;;;6.40;58.80;;;1.34;82.95;96306.47;4978593;28;20384;-51
2023/02/01 01:41:28;;;;;;;7.68;5.50;;;6.30;58.90;;;1.26;83.26;96304.00;4983053;28;20021;-50
2023/02/01 01:44:05;;;;;;;10.18;5.25;;;6.30;59.00;;;1.23;83.86;96298.31;4986576;28;20076;-51
2023/02/01 01:46:37;;;;;;;11.85;5.97;;;6.20;59.60;;;1.18;83.61;96300.66;4991140;28;20053;-55
2023/02/01 01:49:29;;;;;;;8.00;5.13;;;6.20;59.20;;;1.15;84.14;96301.84;5002332;28;20033;-53
2023/02/01 01:52:02;;;;;;;9.50;4.35;;;6.10;59.10;;;1.08;84.15;96296.53;4998412;28;20049;-55
2023/02/01 01:54:48;;;;;;;10.10;6.22;;;6.00;59.10;;;1.03;84.18;96288.41;4981488;28;20108;-53
2023/02/01 01:57:43;;;;;;;13.00;6.03;;;6.00;59.20;;;0.93;84.56;96288.72;4992566;28;20438;-54
2023/02/01 02:00:14;;;;;;;10.75;5.65;;;5.90;59.20;;;0.90;85.47;96293.53;4993149;28;20028;-55
2023/02/01 02:02:52;;;;;;;11.68;6.15;;;5.80;59.30;;;0.86;85.00;96293.09;4994720;28;20017;-51
2023/02/01 02:05:28;;;;;;;10.88;5.55;;;5.80;59.40;;;0.79;85.96;96289.59;4985051;28;20054;-50
2023/02/01 02:08:02;;;;;;;12.05;6.20;;;5.70;59.40;;;0.73;86.05;96297.41;4991710;28;20029;-55
2023/02/01 02:13:23;;;;;;;12.48;5.95;;;5.60;59.50;;;0.59;86.84;96301.66;4997290;28;20043;-55
2023/02/01 02:16:36;;;;;;;10.60;6.50;;;5.60;59.60;;;0.54;87.42;96304.06;4993618;23;20049;-58
2023/02/01 02:20:14;;;;;;;8.23;5.13;;;5.60;59.70;;;0.55;87.13;96296.00;4998212;28;20033;-51
2023/02/01 02:23:22;;;;;;;11.90;6.07;;;5.50;59.80;;;0.53;87.04;96294.53;5011791;28;20029;-58
2023/02/01 02:26:53;;;;;;;10.88;5.90;;;5.50;59.90;;;0.54;86.76;96304.06;5006813;28;20071;-58
2023/02/01 02:30:02;;;;;;;10.75;5.68;;;5.40;59.90;;;0.49;87.50;96295.91;4994984;28;20044;-55
2023/02/01 02:33:37;;;;;;;10.85;6.30;;;5.40;60.00;;;0.48;87.22;96305.59;5012589;28;20021;-56
2023/02/01 02:36:30;;;;;;;10.43;6.00;;;5.40;60.10;;;0.44;87.75;96305.16;4991242;28;20626;-55
2023/02/01 02:39:50;;;;;;;9.55;5.97;;;5.30;60.10;;;0.38;88.02;96292.78;5012415;28;20381;-55
2023/02/01 02:49:12;;;;;;;11.63;6.35;;;5.30;60.40;;;0.39;88.48;96286.53;5014107;28;20117;-58
2023/02/01 02:54:51;;;;;;;12.35;6.85;;;5.30;60.40;;;0.31;88.53;96288.44;5006555;28;20082;-54
2023/02/01 03:06:15;;;;;;;12.18;6.53;;;5.20;60.70;;;0.26;89.18;96291.63;4995127;28;20447;-55
2023/02/01 03:08:45;;;;;;;12.65;6.00;;;5.20;60.60;;;0.27;89.32;96289.81;5010614;28;20064;-53
2023/02/01 03:11:15;;;;;;;9.80;6.13;;;5.20;60.60;;;0.24;88.89;96288.34;5011778;28;20026;-56
2023/02/01 03:13:53;;;;;;;10.38;6.47;;;5.20;60.70;;;0.19;89.08;96283.66;4993632;28;20283;-55
2023/02/01 03:16:47;;;;;;;10.63;7.18;;;5.10;60.60;;;0.14;89.03;96274.72;5011638;28;20044;-55
2023/02/01 03:19:50;;;;;;;9.45;6.13;;;5.10;60.60;;;0.02;90.00;96279.59;5009752;28;20429;-53
2023/02/01 03:22:26;;;;;;;12.60;6.85;;;5.00;60.60;;;-0.04;90.78;96282.94;5012032;28;20364;-58
2023/02/01 03:25:29;;;;;;;11.20;6.70;;;4.90;60.70;;;-0.07;91.31;96294.59;4989622;28;20062;-55
2023/02/01 03:28:14;;;;;;;11.35;6.35;;;4.90;60.90;;;-0.06;91.87;96300.66;4989968;28;20041;-53
2023/02/01 03:30:43;;;;;;;11.07;6.55;;;4.90;61.10;;;-0.06;91.89;96303.28;5009496;28;20029;-52
2023/02/01 03:33:21;;;;;;;11.05;6.60;;;4.90;61.20;;;-0.07;92.22;96304.25;5007398;28;20037;-55
2023/02/01 03:36:25;;;;;;;10.32;5.75;;;4.90;61.30;;;-0.05;92.19;96302.28;4979764;28;20021;-54
2023/02/01 03:39:36;;;;;;;13.05;6.47;;;4.90;61.40;;;-0.05;92.45;96299.66;4997050;28;20483;-57
2023/02/01 03:42:30;;;;;;;10.05;6.18;;;4.90;61.50;;;-0.03;92.72;96303.75;5011263;28;20478;-56
2023/02/01 03:45:40;;;;;;;14.52;6.13;;;4.90;61.60;;;-0.03;92.94;96298.50;5005691;28;20032;-58
2023/02/01 03:48:10;;;;;;;11.75;6.60;;;4.90;61.60;;;0.01;92.39;96290.28;5000178;28;20128;-58
2023/02/01 03:50:48;;;;;;;12.00;6.22;;;4.90;61.60;;;-0.07;93.11;96283.31;5010183;28;20112;-58
2023/02/01 03:53:30;;;;;;;12.00;5.97;;;4.90;61.60;;;-0.04;92.59;96277.72;5007640;28;20052;-58
2023/02/01 03:55:56;;;;;;;14.00;6.45;;;4.90;61.70;;;-0.07;93.00;96272.84;5009002;28;20025;-58
2023/02/01 03:58:23;;;;;;;14.68;6.72;;;4.90;61.60;;;-0.05;92.34;96276.91;5009546;28;20108;-52
2023/02/01 04:01:00;;;;;;;10.50;6.18;;;4.90;61.80;;;-0.02;92.44;96284.41;4987488;28;21142;-58
2023/02/01 04:03:28;;;;;;;11.68;6.47;;;4.90;61.90;;;-0.02;92.33;96288.81;4987174;28;20036;-57
2023/02/01 04:06:00;;;;;;;11.48;6.28;;;4.90;61.90;;;-0.03;92.37;96282.78;4999668;28;20032;-54
2023/02/01 04:08:26;;;;;;;12.03;6.43;;;4.90;62.10;;;0.03;92.10;96293.50;5005013;28;20479;-58
2023/02/01 04:10:52;;;;;;;10.68;6.32;;;4.90;62.10;;;0.10;92.19;96303.09;5006309;28;20029;-55
2023/02/01 04:13:21;;;;;;;9.25;5.70;;;4.90;62.20;;;0.18;91.98;96310.84;5008167;28;20037;-57
2023/02/01 04:15:49;;;;;;;10.43;6.65;;;5.00;62.30;;;0.24;91.50;96306.69;5009258;28;20052;-58
2023/02/01 04:18:15;;;;;;;12.88;6.60;;;5.10;62.30;;;0.28;91.58;96307.13;5008864;28;20025;-57
2023/02/01 04:20:43;;;;;;;10.85;5.97;;;5.20;62.30;;;0.33;90.72;96312.66;5005194;28;20029;-58
2023/02/01 04:23:18;;;;;;;10.68;6.47;;;5.20;62.30;;;0.37;90.79;96306.84;4992022;28;20029;-58
2023/02/01 04:25:47;;;;;;;11.80;6.75;;;5.30;62.20;;;0.41;90.91;96307.31;4987806;28;20023;-58
2023/02/01 04:28:13;;;;;;;11.00;6.03;;;5.30;62.20;;;0.43;90.57;96307.94;5005435;28;20124;-58
2023/02/01 04:30:42;;;;;;;10.38;5.70;;;5.40;62.20;;;0.48;90.23;96302.16;5010461;28;20587;-58
2023/02/01 04:33:08;;;;;;;12.98;5.88;;;5.40;62.10;;;0.51;89.93;96315.72;5009085;28;20108;-58
2023/02/01 04:35:37;;;;;;;9.10;5.78;;;5.50;62.10;;;0.58;89.98;96308.72;5009180;28;20025;-58
2023/02/01 04:38:03;;;;;;;9.40;5.15;;;5.50;62.00;;;0.62;89.40;96315.22;5013184;28;20034;-55
2023/02/01 04:40:29;;;;;;;7.80;4.93;;;5.60;62.00;;;0.68;89.18;96329.41;5000173;28;20083;-55
2023/02/01 04:43:04;;;;;;;10.85;5.53;;;5.60;62.00;;;0.72;88.57;96330.66;5007020;28;20430;-57
2023/02/01 04:45:33;;;;;;;10.77;5.63;;;5.70;62.00;;;0.78;88.14;96332.53;5009503;28;20108;-55
2023/02/01 04:48:02;;;;;;;8.57;5.80;;;5.70;61.90;;;0.84;87.85;96350.16;4988871;28;20511;-55
2023/02/01 04:50:28;;;;;;;9.63;5.65;;;5.80;62.00;;;0.86;87.77;96345.56;5008264;28;20025;-54
2023/02/01 04:52:54;;;;;;;9.35;5.43;;;5.80;61.80;;;0.90;87.81;96352.06;4991567;28;20025;-55
2023/02/01 04:55:20;;;;;;;7.85;5.50;;;5.90;61.70;;;0.90;88.01;96348.63;5008287;28;20025;-58
2023/02/01 04:57:46;;;;;;;10.82;5.95;;;5.90;61.60;;;0.90;88.17;96362.56;5009056;28;20096;-55
2023/02/01 05:00:13;;;;;;;9.52;5.25;;;5.90;61.60;;;0.94;87.73;96368.28;5000243;28;20037;-54
2023/02/01 05:02:44;;;;;;;8.57;5.20;;;5.90;61.50;;;0.96;87.76;96363.63;5005886;28;20110;-56
2023/02/01 05:05:10;;;;;;;9.57;4.63;;;5.90;61.50;;;0.98;87.62;96359.03;4980659;28;20147;-54
2023/02/01 05:07:36;;;;;;;8.68;5.30;;;6.00;61.50;;;0.97;87.66;96364.44;5007730;28;20037;-54
2023/02/01 05:10:03;;;;;;;10.85;6.00;;;6.00;61.40;;;1.00;87.17;96361.44;5008896;28;20075;-55
2023/02/01 05:15:19;;;;;;;13.02;5.85;;;6.00;61.30;;;1.00;87.36;96359.63;5007758;28;20052;-53
2023/02/01 05:17:45;;;;;;;9.55;6.15;;;6.00;61.30;;;1.05;87.59;96361.72;5008976;28;20495;-55
2023/02/01 05:20:11;;;;;;;11.30;5.80;;;6.10;61.30;;;1.04;87.68;96363.53;5006242;28;20033;-54
2023/02/01 05:22:43;;;;;;;10.60;6.32;;;6.10;61.20;;;1.01;87.98;96350.78;5000729;28;20026;-58
2023/02/01 05:25:12;;;;;;;9.37;6.13;;;6.10;61.20;;;1.06;88.03;96350.22;4990214;28;20030;-55
2023/02/01 05:27:41;;;;;;;10.43;6.00;;;6.10;61.20;;;1.02;87.74;96341.09;5010971;28;20044;-56
2023/02/01 05:30:09;;;;;;;8.60;5.63;;;6.10;61.20;;;1.03;87.49;96337.47;4974836;28;20132;-54
2023/02/01 05:32:38;;;;;;;10.23;6.15;;;6.10;61.10;;;1.04;87.52;96329.41;5008192;28;20391;-57
2023/02/01 05:35:08;;;;;;;10.63;6.45;;;6.10;61.90;;;0.98;87.91;96318.84;4988606;28;20022;-54
2023/02/01 05:37:34;;;;;;;11.70;5.82;;;6.10;61.10;;;1.05;87.81;96327.59;5007351;28;20025;-57
2023/02/01 05:40:04;;;;;;;11.70;6.65;;;6.10;61.20;;;1.07;87.70;96328.25;4991323;28;20029;-55
2023/02/01 05:42:30;;;;;;;12.40;6.38;;;6.10;61.90;;;1.07;88.42;96323.00;4989594;28;20488;-55
2023/02/01 05:45:04;;;;;;;10.10;6.13;;;6.10;61.20;;;1.10;88.21;96327.88;4991559;28;20030;-55
2023/02/01 05:47:33;;;;;;;11.43;6.22;;;6.10;61.20;;;1.05;87.98;96323.16;4991363;28;20586;-53
2023/02/01 05:50:05;;;;;;;10.68;6.20;;;6.20;61.20;;;1.05;87.51;96335.47;4989448;28;20029;-55
2023/02/01 05:52:36;;;;;;;10.25;5.82;;;6.20;61.20;;;1.06;88.18;96345.75;4990886;28;20040;-53
2023/02/01 05:55:03;;;;;;;8.98;5.85;;;6.20;61.20;;;1.04;88.19;96353.03;4989918;28;20048;-54
2023/02/01 05:57:29;;;;;;;7.90;5.32;;;6.20;61.20;;;1.08;87.77;96351.66;4991187;28;20028;-53
2023/02/01 06:00:07;;;;;;;10.80;6.30;;;6.20;61.30;;;1.11;87.80;96367.03;5008426;28;20450;-55
2023/02/01 06:02:45;;;;;;;11.10;6.00;;;6.20;61.20;;;1.12;87.41;96357.34;4986673;28;20018;-53
2023/02/01 06:05:14;;;;;;;9.95;5.88;;;6.20;61.30;;;1.11;87.52;96361.78;5005494;28;20124;-53
2023/02/01 06:07:43;;;;;;;9.68;6.03;;;6.20;61.20;;;1.11;87.41;96353.09;4990786;28;20039;-57
2023/02/01 06:10:10;;;;;;;10.50;5.47;;;6.20;61.30;;;1.13;87.16;96351.91;5008721;28;20780;-56
2023/02/01 06:12:44;;;;;;;13.25;5.38;;;6.20;61.20;;;1.15;87.39;96349.09;4990023;28;20509;-57
2023/02/01 06:15:18;;;;;;;9.88;5.22;;;6.20;61.20;;;1.11;86.75;96339.97;5006952;28;20179;-57
2023/02/01 06:17:49;;;;;;;8.95;5.75;;;6.20;61.30;;;1.17;87.74;96341.06;5008631;28;20029;-57
2023/02/01 06:20:22;;;;;;;9.13;5.18;;;6.20;61.20;;;1.22;86.96;96343.91;5007047;28;20030;-57
2023/02/01 06:22:48;;;;;;;9.02;5.40;;;6.30;61.20;;;1.22;86.87;96349.16;5008422;28;20067;-57
2023/02/01 06:25:14;;;;;;;7.93;5.13;;;6.30;61.20;;;1.24;86.99;96362.91;5006358;28;20052;-55
2023/02/01 06:27:46;;;;;;;10.05;5.57;;;6.30;61.20;;;1.26;86.57;96360.94;5008810;28;20447;-56
2023/02/01 06:30:16;;;;;;;8.00;5.35;;;6.30;61.20;;;1.27;86.58;96357.28;5006505;28;20022;-54
2023/02/01 06:32:53;;;;;;;8.95;5.47;;;6.30;61.10;;;1.28;86.80;96353.66;4993919;28;20064;-56
2023/02/01 06:35:22;;;;;;;11.13;5.72;;;6.30;61.10;;;1.23;86.06;96356.84;5011900;28;20087;-53
2023/02/01 06:37:51;;;;;;;9.50;4.82;;;6.30;61.10;;;1.28;86.72;96359.72;4994066;28;20021;-53
2023/02/01 06:40:20;;;;;;;9.20;5.45;;;6.40;61.10;;;1.29;86.17;96371.88;5010145;28;20025;-57
2023/02/01 06:42:49;;;;;;;9.35;5.38;;;6.30;61.00;;;1.34;86.02;96373.91;4992805;28;20108;-56
2023/02/01 06:45:15;;;;;;;15.75;5.53;;;6.40;61.10;;;1.39;85.71;96363.69;5010580;28;20151;-57
2023/02/01 06:47:42;;;;;;;8.15;5.03;;;6.40;61.00;;;1.41;86.21;96363.47;5011180;28;20037;-58
2023/02/01 06:50:09;;;;;;;8.30;5.18;;;6.40;61.00;;;1.42;86.03;96373.00;4985921;28;20037;-56
2023/02/01 06:52:36;;;;;;;11.10;5.95;;;6.40;61.00;;;1.47;85.59;96370.59;5009628;28;20029;-58
2023/02/01 06:55:02;;;;;;;10.30;5.78;;;6.50;61.10;;;1.45;85.00;96372.63;5010323;28;20064;-56
2023/02/01 06:57:30;;;;;;;9.52;5.43;;;6.50;60.90;;;1.45;85.63;96375.25;4988314;28;20048;-54
2023/02/01 06:59:56;;;;;;;10.43;5.70;;;6.60;61.70;;;1.44;85.59;96387.53;5008095;28;20021;-58
2023/02/01 07:02:22;;;;;;;11.15;5.60;;;6.60;60.80;;;1.48;84.61;96396.69;5007013;28;20025;-54
2023/02/01 07:04:48;;;;;;;12.65;5.45;;;6.60;60.80;;;1.50;83.77;96399.09;5007186;28;20022;-54
2023/02/01 07:07:15;;;;;;;11.68;5.60;;;6.60;60.70;;;1.55;84.21;96413.31;5009203;28;20036;-58
2023/02/01 07:09:41;;;;;;;10.90;5.90;;;6.60;60.60;;;1.57;84.97;96418.38;4992095;28;20028;-54
2023/02/01 07:12:07;;;;;;;9.48;5.43;;;6.70;60.60;;;1.58;85.76;96425.25;5005418;28;20044;-53
2023/02/01 07:14:33;;;;;;;9.75;6.35;;;6.70;60.70;;;1.53;86.72;96435.50;5000672;28;20072;-57
2023/02/01 07:16:59;;;;;;;11.77;6.38;;;6.70;60.60;;;1.47;87.78;96439.69;4992694;28;20068;-58
2023/02/01 07:19:24;;;;;;;15.10;5.80;;;6.70;60.60;;;1.42;89.10;96455.19;4988233;28;20072;-56
2023/02/01 07:21:53;;;;;;;14.32;7.30;;;6.70;60.60;;;1.32;90.23;96467.81;4957962;28;241043;-57
2023/02/01 07:24:19;;;;;;;10.70;6.53;;;6.60;60.60;;;1.26;91.69;96466.72;5000590;28;20021;-58
2023/02/01 07:26:50;;;;;;;14.25;6.03;;;6.60;60.70;;;1.17;92.69;96465.22;4989823;28;20539;-58
2023/02/01 07:29:18;;;;;;;14.00;7.28;;;6.50;60.80;;;1.12;93.54;96464.94;5003844;28;20029;-53
2023/02/01 07:31:52;;;;;;;13.07;7.50;;;6.40;60.90;;;1.10;94.61;96467.75;5003030;28;20017;-58
2023/02/01 07:34:20;;;;;;;13.88;7.70;;;6.30;61.00;;;0.96;96.01;96465.94;5002703;28;20021;-58
2023/02/01 07:36:52;;;;;;;17.02;8.20;;;6.30;61.20;;;0.87;96.73;96467.03;5002245;28;20024;-58
2023/02/01 07:39:21;;;;;;;14.82;7.95;;;6.20;61.40;;;0.73;97.79;96476.56;5000953;28;20030;-56
2023/02/01 07:41:53;;;;;;;14.95;8.10;;;6.10;61.60;;;0.73;98.73;96473.13;5016483;28;20059;-53
2023/02/01 07:44:22;;;;;;;15.48;8.35;;;6.00;61.80;;;0.68;99.86;96465.78;4979334;28;20078;-53
2023/02/01 07:46:49;;;;;;;20.48;9.27;;;6.00;62.00;;;0.67;99.84;96466.78;4989426;28;20031;-53
2023/02/01 07:49:17;;;;;;;14.85;8.60;;;5.90;62.10;;;0.72;100.00;96467.03;5007211;28;20041;-56
2023/02/01 07:51:50;;;;;;;18.67;8.90;;;5.90;62.20;;;0.69;100.00;96452.50;4988451;28;20046;-57
2023/02/01 07:54:16;;;;;;;23.75;8.98;;;5.90;62.50;;;0.63;100.00;96450.59;5008011;28;20052;-58
2023/02/01 07:56:41;;;;;;;19.60;9.85;;;5.90;62.60;;;0.64;100.00;96454.84;5011434;28;20040;-55
2023/02/01 07:59:07;;;;;;;21.35;9.63;;;5.90;62.70;;;0.60;100.00;96453.59;5002200;28;20029;-55
2023/02/01 08:01:33;;;;;;;18.45;9.40;;;5.90;62.90;;;0.60;100.00;96452.78;4972879;28;20076;-57
2023/02/01 08:04:02;;;;;;;21.52;10.25;;;5.80;62.90;;;0.59;100.00;96443.25;4983932;28;20396;-52
2023/02/01 08:06:34;;;;;;;20.90;9.85;;;5.90;63.20;;;0.66;100.00;96449.44;4994500;28;20028;-56
2023/02/01 08:09:18;;;;;;;15.93;8.80;;;5.80;63.30;;;0.69;100.00;96460.38;5010839;28;20559;-55
2023/02/01 08:11:44;;;;;;;17.27;10.07;;;5.80;63.50;;;0.69;100.00;96457.75;4997976;28;20075;-57
2023/02/01 08:14:10;;;;;;;21.33;10.75;;;5.80;63.50;;;0.76;100.00;96459.66;5004651;28;20021;-50
2023/02/01 08:16:37;;;;;;;20.55;10.88;;;5.90;63.70;;;0.77;100.00;96456.81;4990051;28;20121;-49
2023/02/01 08:19:03;;;;;;;18.02;10.07;;;5.90;63.80;;;0.83;100.00;96444.81;4987202;28;20025;-51
2023/02/01 08:21:39;;;;;;;19.73;11.57;;;5.90;63.80;;;0.83;100.00;96436.94;5007336;28;20040;-52
2023/02/01 08:24:09;;;;;;;21.85;11.32;;;6.00;64.00;;;0.87;100.00;96439.00;4964053;28;20028;-51
2023/02/01 08:26:47;;;;;;;21.17;11.10;;;6.00;64.00;;;0.88;100.00;96439.84;4987979;28;20045;-49
2023/02/01 08:29:13;;;;;;;17.88;10.55;;;6.10;64.20;;;0.90;100.00;96441.25;4975667;28;20116;-51
2023/02/01 08:31:43;;;;;;;20.83;10.43;;;6.10;64.30;;;1.02;100.00;96438.97;4983977;28;20021;-51
2023/02/01 08:34:12;;;;;;;21.38;9.75;;;6.20;64.40;;;1.05;100.00;96437.81;4988436;28;20025;-51
2023/02/01 08:36:38;;;;;;;20.48;10.07;;;6.30;64.40;;;1.08;100.00;96440.88;4991620;28;20453;-51
2023/02/01 08:39:08;;;;;;;17.23;9.40;;;6.40;64.40;;;1.17;100.00;96446.03;5007991;28;20063;-51
2023/02/01 08:41:34;;;;;;;20.35;9.82;;;6.40;64.40;;;1.18;100.00;96451.06;4995397;28;20060;-52
2023/02/01 08:44:06;;;;;;;19.35;9.43;;;6.50;64.50;;;1.31;100.00;96453.84;4995554;28;20033;-49
2023/02/01 08:46:35;;;;;;;14.52;8.50;;;6.50;64.50;;;1.36;99.82;96451.50;4994248;28;20028;-51
2023/02/01 08:49:01;;;;;;;16.58;8.57;;;6.60;64.40;;;1.44;99.51;96441.88;5008314;28;20040;-50
2023/02/01 08:51:27;;;;;;;15.85;8.77;;;6.60;64.40;;;1.43;99.10;96437.63;5000553;28;20410;-50
2023/02/01 08:53:53;;;;;;;15.82;8.05;;;6.70;64.40;;;1.44;98.20;96432.16;4987543;28;20029;-50
2023/02/01 08:56:22;;;;;;;17.13;8.50;;;6.70;64.20;;;1.55;99.00;96425.63;5000297;28;20067;-50
2023/02/01 08:58:48;;;;;;;12.30;7.45;;;6.80;64.20;;;1.52;98.58;96437.31;4991349;28;20028;-51
2023/02/01 09:01:17;;;;;;;16.17;8.32;;;6.80;64.20;;;1.59;97.70;96445.25;4995686;28;20025;-51
2023/02/01 09:03:43;;;;;;;18.35;9.02;;;6.80;64.10;;;1.66;97.82;96442.69;4985248;28;20072;-50
2023/02/01 09:06:14;;;;;;;16.35;8.30;;;6.90;64.20;;;1.68;97.16;96448.59;4994763;28;20045;-52
2023/02/01 09:08:41;;;;;;;15.38;7.43;;;6.90;64.10;;;1.75;97.11;96446.81;4979739;28;20059;-52
2023/02/01 09:11:17;;;;;;;13.00;7.40;;;6.90;64.00;;;1.81;96.95;96440.81;4990755;28;20115;-55
2023/02/01 09:13:43;;;;;;;13.98;8.35;;;7.00;64.10;;;1.83;96.12;96436.19;4990540;28;20154;-54
2023/02/01 09:16:09;;;;;;;13.40;8.02;;;7.00;64.10;;;1.87;96.21;96447.13;4990875;28;20123;-54
2023/02/01 09:18:35;;;;;;;12.18;7.38;;;7.00;63.90;;;1.91;94.86;96454.44;4965884;28;20041;-51
2023/02/01 09:21:13;;;;;;;12.70;6.93;;;7.10;64.00;;;1.99;94.88;96453.50;4994851;28;20361;-53
2023/02/01 09:23:48;;;;;;;11.65;7.22;;;7.10;63.90;;;1.97;93.02;96461.56;4987867;28;20255;-52
2023/02/01 09:26:14;;;;;;;14.40;7.55;;;7.10;63.80;;;2.04;93.95;96456.41;5004578;28;20112;-51
2023/02/01 09:28:40;;;;;;;12.60;6.47;;;7.10;63.80;;;2.09;94.22;96467.94;4972383;28;20030;-50
2023/02/01 09:31:18;;;;;;;13.25;8.52;;;7.20;63.80;;;2.12;94.78;96458.06;4989312;28;20033;-51
2023/02/01 09:33:44;;;;;;;13.70;7.65;;;7.30;63.80;;;2.12;94.12;96458.88;4988261;28;20026;-50
2023/02/01 09:36:11;;;;;;;13.02;7.40;;;7.30;63.60;;;2.15;94.00;96466.38;5003634;28;20067;-52
2023/02/01 09:38:42;;;;;;;13.68;7.85;;;7.40;63.60;;;2.17;93.63;96474.09;5002719;28;20045;-50
2023/02/01 09:41:52;;;;;;;15.95;8.10;;;7.40;63.50;;;2.22;94.09;96480.38;5004581;28;20116;-50
2023/02/01 09:45:18;;;;;;;13.75;7.88;;;7.50;63.50;;;2.24;93.45;96482.84;4994711;28;20052;-52
2023/02/01 09:48:01;;;;;;;16.58;8.02;;;7.60;63.30;;;2.28;92.65;96478.81;5000008;28;20048;-52
2023/02/01 09:50:39;;;;;;;15.38;7.88;;;7.60;63.30;;;2.34;92.72;96479.88;5002309;28;20037;-50
2023/02/01 09:53:37;;;;;;;16.45;7.90;;;7.60;63.20;;;2.35;92.56;96492.84;4960511;28;20042;-53
2023/02/01 09:56:15;;;;;;;10.80;6.75;;;7.60;63.10;;;2.41;92.04;96483.38;4997463;28;20076;-56
2023/02/01 09:59:23;;;;;;;13.40;7.53;;;7.70;63.10;;;2.47;91.47;96487.84;5001787;28;20498;-53
2023/02/01 10:01:49;;;;;;;9.95;6.53;;;7.70;63.00;;;2.48;91.38;96481.63;4998770;28;20484;-52
2023/02/01 10:04:19;;;;;;;13.43;6.72;;;7.70;63.10;;;2.49;90.56;96478.78;4993697;28;20252;-51
2023/02/01 10:07:13;;;;;;;11.90;6.30;;;7.70;63.00;;;2.51;90.46;96482.03;4990548;28;20305;-53
2023/02/01 10:10:17;;;;;;;13.20;6.20;;;7.70;62.80;;;2.53;89.98;96479.22;5022100;28;20031;-50
2023/02/01 10:13:21;;;;;;;10.57;5.60;;;7.80;62.70;;;2.51;88.58;96468.09;5007232;28;20020;-54
2023/02/01 10:16:03;;;;;;;7.90;5.32;;;7.80;62.60;;;2.52;88.85;96473.13;5005900;28;20488;-55
2023/02/01 10:19:38;;;;;;;9.43;5.47;;;7.90;62.50;;;2.59;86.25;96446.88;4999545;28;20064;-52
2023/02/01 10:22:11;;;;;;;7.93;4.97;;;8.00;62.20;;;2.64;87.78;96439.22;4987930;28;20049;-54
2023/02/01 10:24:56;;;;;;;6.72;4.60;;;8.30;61.80;;;2.82;87.13;96430.84;4993181;28;20484;-55
2023/02/01 10:27:40;;;;;;;7.47;4.32;;;8.50;61.40;;;3.12;86.00;96431.34;5006791;28;20090;-56
2023/02/01 10:30:29;;;;;;;6.47;4.20;;;9.00;60.90;;;3.65;84.54;96435.97;4995274;28;20036;-54
2023/02/01 10:33:14;;;;;;;10.13;4.43;;;9.70;60.10;;;4.18;82.27;96434.19;4989716;28;20030;-55
2023/02/01 10:35:41;;;;;;;7.93;4.30;;;10.30;59.90;;;4.53;81.34;96428.66;5014467;28;20029;-53
2023/02/01 10:38:28;;;;;;;5.72;3.80;;;10.70;59.50;;;4.60;78.43;96439.22;5012995;28;20391;-50
2023/02/01 10:41:22;;;;;;;7.45;4.25;;;11.20;58.50;;;4.80;76.34;96434.72;4997582;28;20025;-51
2023/02/01 10:44:00;;;;;;;5.25;3.75;;;11.50;58.00;;;4.93;77.00;96430.41;4969397;28;20033;-51
2023/02/01 10:46:26;;;;;;;6.28;3.90;;;11.60;57.40;;;4.97;75.59;96432.41;4989704;28;20025;-52
2023/02/01 10:48:59;;;;;;;6.28;3.78;;;11.70;57.20;;;5.23;76.46;96422.78;4998338;28;20398;-52
2023/02/01 10:51:52;;;;;;;4.80;3.22;;;11.70;57.00;;;5.21;75.09;96419.56;4989360;28;20606;-50
2023/02/01 10:54:38;;;;;;;6.03;3.33;;;11.70;56.70;;;5.09;74.92;96417.56;5007969;28;20128;-54
2023/02/01 10:57:10;;;;;;;4.65;3.30;;;11.60;56.60;;;5.17;74.79;96413.88;4989280;28;20021;-56
2023/02/01 10:59:42;;;;;;;4.07;3.13;;;11.60;56.30;;;5.13;75.95;96420.59;4995329;28;20029;-55
2023/02/01 11:02:35;;;;;;;4.68;3.15;;;11.60;56.10;;;5.31;75.65;96406.69;4995412;28;20060;-54
2023/02/01 11:05:11;;;;;;;5.73;3.87;;;11.60;56.10;;;5.35;74.23;96407.88;5001133;28;20025;-55
2023/02/01 11:07:46;;;;;;;4.88;2.72;;;11.60;56.10;;;5.17;72.58;96400.69;4985398;28;20287;-54
2023/02/01 11:10:40;;;;;;;4.28;2.90;;;11.60;55.90;;;4.95;74.20;96397.50;4989927;28;20152;-54
2023/02/01 11:13:17;;;;;;;5.10;3.33;;;11.50;55.40;;;4.94;74.14;96389.78;4987098;28;20608;-54
2023/02/01 11:15:56;;;;;;;6.97;3.00;;;11.40;55.30;;;4.86;76.11;96391.66;5002440;28;20065;-50
2023/02/01 11:18:35;;;;;;;4.13;3.00;;;11.30;55.20;;;4.83;74.55;96389.44;4984567;28;20104;-55
2023/02/01 11:21:20;;;;;;;6.90;2.92;;;11.30;55.20;;;5.16;74.27;96388.47;5007222;28;20025;-51
2023/02/01 11:23:50;;;;;;;4.72;2.83;;;11.70;55.10;;;5.52;72.84;96381.78;4989984;28;20021;-55